Latest Weather Observations for Oodnadatta

IDS60801

Issued at 8:31 am CST Thursday 5 May 2016 (issued every 30 minutes, with the page automatically refreshed every 10 minutes)

About weather observations | Map of weather stations | Latest weather observations for SA | Other Formats
Station Details ID: 017043 Name: OODNADATTA AIRPORT Lat: -27.56 Lon: 135.45 Height: 116.5 m
Data from the previous 72 hours. | See also: Recent months at Oodnadatta
Date/Time
CST
Temp
°C
App
Temp
°C
Dew
Point
Rel
Hum
%
Delta-T
°C
Wind Press
QNH
hPa
Press
MSL
hPa
Rain
since 9 am
mm
Dir
 
Spd
km/h
Gust
km/h
Spd
kts
Gust
kts
05/08:30am 17.7 14.3 9.1 57 4.5 N 17 28 9 15 1017.8 1017.7 0.0
05/08:00am 16.2 12.7 8.7 61 3.8 N 17 20 9 11 1017.6 1017.5 0.0
05/07:30am 15.4 12.6 8.6 64 3.5 N 13 17 7 9 1017.2 1017.1 0.0
05/07:00am 15.3 12.9 8.5 64 3.5 N 11 17 6 9 1017.0 1016.9 0.0
05/06:30am 13.7 12.0 7.5 66 3.1 NNE 6 9 3 5 1016.7 1016.6 0.0
05/06:00am 12.1 11.3 6.4 68 2.7 CALM 0 0 0 0 1016.3 1016.2 0.0
05/05:30am 13.9 12.0 7.7 66 3.1 NNE 7 9 4 5 1016.0 1015.8 0.0
05/05:00am 14.7 12.6 8.4 66 3.2 NNE 9 13 5 7 1016.0 1015.8 0.0
05/04:30am 13.1 10.5 6.0 62 3.4 NE 9 11 5 6 1015.9 1015.7 0.0
05/04:00am 14.7 12.4 7.5 62 3.6 NE 9 11 5 6 1015.9 1015.7 0.0
05/03:30am 14.7 12.8 6.8 59 3.9 NE 6 7 3 4 1016.0 1015.8 0.0
05/03:00am 14.8 13.1 7.6 62 3.6 NE 6 7 3 4 1016.1 1015.9 0.0
05/02:30am 15.0 13.2 7.3 60 3.8 NE 6 9 3 5 1016.1 1015.9 0.0
05/02:00am 15.2 13.2 7.3 59 3.9 ENE 7 9 4 5 1016.3 1016.2 0.0
05/01:30am 15.9 12.9 7.7 58 4.1 ENE 13 15 7 8 1016.4 1016.3 0.0
05/01:00am 16.2 12.8 7.7 57 4.3 ENE 15 17 8 9 1016.6 1016.5 0.0
05/12:30am 16.6 13.6 7.5 55 4.6 ENE 13 15 7 8 1016.8 1016.7 0.0
05/12:00am 17.3 14.2 7.1 51 5.1 ENE 13 17 7 9 1016.9 1016.8 0.0
 
Date/Time
CST
Temp
°C
App
Temp
°C
Dew
Point
Rel
Hum
%
Delta-T
°C
Wind Press
QNH
hPa
Press
MSL
hPa
Rain
since 9 am
mm
Dir
 
Spd
km/h
Gust
km/h
Spd
kts
Gust
kts
04/11:30pm 17.7 14.2 7.2 50 5.3 ENE 15 19 8 10 1017.2 1017.1 0.0
04/11:00pm 17.8 13.8 6.7 48 5.5 ENE 17 17 9 9 1017.4 1017.3 0.0
04/10:30pm 17.8 13.7 6.0 46 5.8 ENE 17 17 9 9 1017.8 1017.7 0.0
04/10:00pm 18.0 14.5 5.6 44 6.1 ENE 13 15 7 8 1018.0 1017.9 0.0
04/09:30pm 18.6 15.5 5.5 42 6.4 E 11 13 6 7 1017.8 1017.7 0.0
04/09:00pm 19.2 15.8 6.0 42 6.6 E 13 15 7 8 1017.7 1017.6 0.0
04/08:30pm 19.5 16.0 5.6 40 6.9 ESE 13 15 7 8 1017.4 1017.3 0.0
04/08:00pm 20.7 16.9 5.9 38 7.4 ESE 15 17 8 9 1017.3 1017.2 0.0
04/07:30pm 21.8 19.1 5.7 35 8.1 SE 9 11 5 6 1017.2 1017.1 0.0
04/07:00pm 22.7 21.3 5.6 33 8.6 SSE 2 6 1 3 1016.8 1016.7 0.0
04/06:30pm 23.7 22.7 5.6 31 9.2 CALM 0 0 0 0 1016.5 1016.4 0.0
04/06:00pm 25.2 24.2 5.4 28 10.1 CALM 0 6 0 3 1016.4 1016.3 0.0
04/05:30pm 26.0 24.0 6.1 28 10.3 ESE 6 9 3 5 1016.0 1015.8 0.0
04/05:00pm 26.3 25.1 6.4 28 10.4 ESE 2 6 1 3 1016.2 1016.1 0.0
04/04:30pm 26.9 24.1 6.9 28 10.6 ESE 11 17 6 9 1016.0 1015.8 0.0
04/04:00pm 27.1 24.7 7.0 28 10.7 SE 9 17 5 9 1015.8 1015.6 0.0
04/03:30pm 26.6 25.1 6.6 28 10.5 SSE 4 7 2 4 1016.0 1015.8 0.0
04/03:00pm 26.1 23.2 6.7 29 10.2 S 11 17 6 9 1016.1 1015.9 0.0
04/02:30pm 26.1 24.8 6.2 28 10.4 S 2 7 1 4 1016.3 1016.2 0.0
04/02:00pm 25.8 23.6 6.4 29 10.1 E 7 13 4 7 1016.7 1016.6 0.0
04/01:30pm 25.4 22.4 7.5 32 9.5 N 13 19 7 10 1017.1 1017.0 0.0
04/01:00pm 24.6 22.1 8.1 35 8.8 SE 11 15 6 8 1017.6 1017.5 0.0
04/12:30pm 24.9 23.0 9.2 37 8.6 E 9 15 5 8 1018.4 1018.3 0.0
04/12:00pm 23.5 21.3 9.5 41 7.6 E 11 17 6 9 1019.0 1018.9 0.0
04/11:30am 22.9 20.5 10.0 44 7.1 E 13 20 7 11 1019.6 1019.4 0.0
04/11:00am 22.9 19.9 10.7 46 6.8 ESE 17 22 9 12 1019.9 1019.7 0.0
04/10:30am 22.1 19.4 10.3 47 6.5 ESE 15 24 8 13 1020.2 1020.0 0.0
04/10:00am 20.9 17.7 10.1 50 5.9 ESE 17 22 9 12 1020.4 1020.2 0.0
04/09:30am 19.1 15.7 7.8 48 5.8 SE 15 20 8 11 1020.4 1020.2 0.0
04/09:00am 17.7 15.0 7.2 50 5.3 ESE 11 17 6 9 1020.4 1020.2 0.0
04/08:30am 15.0 12.5 3.8 47 5.1 S 6 7 3 4 1020.2 1020.0 0.0
04/08:00am 12.7 9.7 2.3 49 4.5 S 7 9 4 5 1019.9 1019.7 0.0
04/07:30am 11.1 7.1 0.2 47 4.5 S 11 13 6 7 1019.6 1019.4 0.0
04/07:00am 10.0 7.8 -1.7 44 4.5 CALM 0 0 0 0 1019.2 1019.1 0.0
04/06:30am 10.7 8.5 -1.4 43 4.8 CALM 0 0 0 0 1018.8 1018.7 0.0
04/06:00am 11.5 9.5 0.0 45 4.7 CALM 0 4 0 2 1018.3 1018.2 0.0
04/05:30am 11.3 7.9 -0.5 44 4.8 S 7 7 4 4 1017.8 1017.7 0.0
04/05:00am 12.6 10.8 1.0 45 4.9 CALM 0 0 0 0 1017.6 1017.5 0.0
04/04:30am 12.4 10.5 0.5 44 5.0 CALM 0 0 0 0 1017.3 1017.2 0.0
04/04:00am 12.4 8.0 0.2 43 5.1 S 13 15 7 8 1017.0 1016.9 0.0
04/03:30am 13.0 8.8 -0.6 39 5.6 S 11 11 6 6 1017.0 1016.9 0.0
04/03:00am 13.3 9.1 -1.1 37 5.9 S 11 11 6 6 1017.0 1016.9 0.0
04/02:30am 14.1 9.5 -1.1 35 6.2 S 13 15 7 8 1016.9 1016.8 0.0
04/02:00am 15.9 12.5 -0.3 33 6.9 SSE 7 9 4 5 1017.0 1016.9 0.0
04/01:30am 15.5 12.2 -1.1 32 6.9 SSE 6 7 3 4 1017.0 1016.9 0.0
04/01:00am 15.9 12.5 -0.8 32 7.0 SSE 7 9 4 5 1016.9 1016.8 0.0
04/12:30am 16.8 13.4 -0.9 30 7.5 SSE 7 9 4 5 1016.9 1016.8 0.0
04/12:00am 16.2 12.8 -0.9 31 7.2 SSE 7 9 4 5 1017.1 1017.0 0.0
 
Date/Time
CST
Temp
°C
App
Temp
°C
Dew
Point
Rel
Hum
%
Delta-T
°C
Wind Press
QNH
hPa
Press
MSL
hPa
Rain
since 9 am
mm
Dir
 
Spd
km/h
Gust
km/h
Spd
kts
Gust
kts
03/11:30pm 16.2 12.9 -0.9 31 7.2 SSE 6 7 3 4 1017.2 1017.1 0.0
03/11:00pm 16.6 12.0 -1.0 30 7.4 SSW 13 13 7 7 1017.2 1017.1 0.0
03/10:30pm 17.6 13.8 -0.6 29 7.8 SSW 9 13 5 7 1017.2 1017.1 0.0
03/10:00pm 17.8 13.5 -1.4 27 8.1 SSW 11 13 6 7 1017.2 1017.1 0.0
03/09:30pm 18.6 14.3 -1.3 26 8.5 SSW 11 13 6 7 1017.1 1017.0 0.0
03/09:00pm 19.2 14.9 -1.3 25 8.8 S 11 13 6 7 1016.9 1016.8 0.0
03/08:30pm 20.2 16.3 -1.6 23 9.4 S 9 9 5 5 1016.8 1016.7 0.0
03/08:00pm 21.3 17.7 -1.9 21 10.0 SSW 7 9 4 5 1016.5 1016.4 0.0
03/07:30pm 22.0 18.0 -2.0 20 10.4 SSW 9 9 5 5 1016.0 1015.8 0.0
03/07:00pm 23.0 18.7 -1.8 19 10.9 SW 11 13 6 7 1015.5 1015.3 0.0
03/06:30pm 24.5 19.9 -1.3 18 11.6 SW 13 15 7 8 1015.0 1014.8 0.0
03/06:00pm 25.9 20.4 -1.8 16 12.5 SW 17 24 9 13 1014.6 1014.4 0.0
03/05:30pm 27.4 21.7 -0.6 16 13.0 WSW 19 24 10 13 1014.1 1013.9 0.0
03/05:00pm 28.2 23.0 0.0 16 13.4 WSW 17 24 9 13 1013.8 1013.6 0.0
03/04:30pm 28.5 23.2 -0.6 15 13.7 WSW 17 24 9 13 1013.6 1013.4 0.0
03/04:00pm 28.6 22.9 -0.5 15 13.7 WSW 19 28 10 15 1013.6 1013.4 0.0
03/03:30pm 28.8 23.1 0.5 16 13.6 W 20 30 11 16 1013.6 1013.4 0.0
03/03:00pm 28.6 22.0 -0.5 15 13.7 WSW 24 33 13 18 1013.7 1013.5 0.0
03/02:30pm 29.2 23.2 0.8 16 13.7 WSW 22 33 12 18 1013.9 1013.7 0.0
03/02:00pm 28.1 22.4 0.8 17 13.1 WSW 20 33 11 18 1014.3 1014.1 0.0
03/01:30pm 28.3 22.4 1.7 18 13.0 W 22 33 12 18 1014.9 1014.7 0.0
03/01:00pm 27.5 21.4 0.3 17 12.9 WSW 22 37 12 20 1015.4 1015.2 0.0
03/12:30pm 27.7 21.7 1.2 18 12.8 WSW 22 35 12 19 1015.9 1015.7 0.0
03/12:00pm 27.3 20.8 2.4 20 12.2 WSW 26 35 14 19 1016.3 1016.2 0.0
03/11:30am 27.0 20.5 2.8 21 11.9 SW 26 37 14 20 1016.7 1016.6 0.0
03/11:00am 26.1 21.6 4.0 24 11.1 SW 17 28 9 15 1017.1 1017.0 0.0
03/10:30am 24.5 22.2 5.8 30 9.6 W 7 11 4 6 1017.4 1017.3 0.0
03/10:00am 23.6 20.8 6.8 34 8.7 WNW 11 15 6 8 1017.3 1017.2 0.0
03/09:30am 21.6 18.9 7.4 40 7.4 WNW 11 15 6 8 1017.3 1017.2 0.0
03/09:00am 19.7 17.6 8.1 47 6.0 NNW 9 13 5 7 1017.1 1017.0 0.0
03/08:30am 17.9 16.1 7.9 52 5.1 NW 7 9 4 5 1017.0 1016.9 0.0
03/08:00am 15.7 13.3 7.2 57 4.2 NNW 9 11 5 6 1016.7 1016.6 0.0
03/07:30am 13.3 11.1 5.5 59 3.7 N 6 7 3 4 1016.5 1016.4 0.0
03/07:00am 14.6 11.7 6.4 58 4.0 N 11 13 6 7 1016.2 1016.1 0.0
03/06:30am 15.2 12.4 7.0 58 4.0 N 11 11 6 6 1015.7 1015.5 0.0
03/06:00am 14.8 12.3 6.6 58 4.0 NW 9 9 5 5 1015.6 1015.4 0.0
03/05:30am 15.3 14.5 6.6 56 4.3 CALM 0 0 0 0 1015.4 1015.2 0.0
03/05:00am 15.2 14.3 6.2 55 4.4 CALM 0 0 0 0 1015.3 1015.1 0.0
03/04:30am 15.1 12.9 6.4 56 4.2 NW 7 9 4 5 1015.1 1014.9 0.0
03/04:00am 15.2 12.6 6.0 54 4.4 NW 9 11 5 6 1015.0 1014.8 0.0
03/03:30am 15.9 13.6 5.5 50 5.0 NW 7 9 4 5 1015.2 1015.0 0.0
03/03:00am 16.3 13.7 5.9 50 5.1 NW 9 9 5 5 1015.4 1015.2 0.0
03/02:30am 17.2 13.8 5.8 47 5.6 NNW 13 13 7 7 1015.6 1015.4 0.0
03/02:00am 17.9 14.5 5.8 45 5.9 NNW 13 15 7 8 1015.6 1015.4 0.0
03/01:30am 17.9 14.4 5.5 44 6.0 N 13 17 7 9 1015.6 1015.4 0.0
03/01:00am 18.8 14.5 5.3 41 6.6 N 17 22 9 12 1015.5 1015.3 0.0
03/12:30am 18.5 14.9 5.0 41 6.5 N 13 17 7 9 1015.8 1015.6 0.0
03/12:00am 19.3 15.7 5.0 39 7.0 N 13 17 7 9 1015.8 1015.6 0.0
 
Date/Time
CST
Temp
°C
App
Temp
°C
Dew
Point
Rel
Hum
%
Delta-T
°C
Wind Press
QNH
hPa
Press
MSL
hPa
Rain
since 9 am
mm
Dir
 
Spd
km/h
Gust
km/h
Spd
kts
Gust
kts
02/11:30pm 20.3 15.6 5.1 37 7.5 NNE 19 22 10 12 1015.9 1015.7 0.0
02/11:00pm 19.8 15.3 4.3 36 7.5 NNE 17 20 9 11 1016.3 1016.2 0.0
02/10:30pm 20.4 15.5 4.0 34 7.9 NNE 19 24 10 13 1016.4 1016.3 0.0
02/10:00pm 20.1 16.0 4.2 35 7.7 NNE 15 17 8 9 1016.5 1016.4 0.0
02/09:30pm 20.1 16.7 4.2 35 7.7 N 11 13 6 7 1016.5 1016.4 0.0
02/09:00pm 20.0 17.4 4.1 35 7.7 NNW 7 9 4 5 1016.5 1016.4 0.0
02/08:30pm 21.3 18.7 4.4 33 8.3 NNW 7 7 4 4 1016.4 1016.3 0.0
02/08:00pm 21.1 19.8 4.2 33 8.2 CALM 0 4 0 2 1016.4 1016.3 0.0
02/07:30pm 22.4 20.1 4.9 32 8.7 NNW 6 7 3 4 1016.3 1016.2 0.0
02/07:00pm 21.9 19.0 4.5 32 8.6 NNW 9 11 5 6 1016.2 1016.1 0.0
02/06:30pm 22.6 19.3 4.6 31 8.9 NNW 11 13 6 7 1016.0 1015.8 0.0
02/06:00pm 24.3 21.5 5.1 29 9.7 NNW 9 13 5 7 1015.7 1015.5 0.0
02/05:30pm 25.2 21.6 4.9 27 10.3 NNW 13 17 7 9 1015.4 1015.2 0.0
02/05:00pm 25.7 22.4 4.8 26 10.6 NW 11 17 6 9 1015.3 1015.1 0.0
02/04:30pm 26.3 23.1 5.3 26 10.8 NW 11 19 6 10 1015.3 1015.1 0.0
02/04:00pm 26.2 23.0 5.2 26 10.8 NNW 11 20 6 11 1015.4 1015.2 0.0
02/03:30pm 26.2 23.4 5.2 26 10.8 NW 9 19 5 10 1015.5 1015.3 0.0
02/03:00pm 25.7 22.2 5.3 27 10.4 SW 13 22 7 12 1015.7 1015.5 0.0
02/02:30pm 26.4 22.9 5.4 26 10.8 W 13 22 7 12 1016.0 1015.8 0.0
02/02:00pm 25.6 22.2 5.8 28 10.2 NW 13 22 7 12 1016.5 1016.4 0.0
02/01:30pm 24.9 21.5 5.7 29 9.8 NW 13 24 7 13 1016.8 1016.7 0.0
02/01:00pm 25.2 22.9 5.9 29 10.0 NNW 7 19 4 10 1017.2 1017.1 0.0
02/12:30pm 24.2 22.4 5.5 30 9.5 E 4 9 2 5 1017.9 1017.8 0.0
02/12:00pm 23.3 21.0 5.7 32 8.9 NNW 7 13 4 7 1018.4 1018.3 0.0
02/11:30am 23.4 21.2 5.3 31 9.1 NE 6 13 3 7 1018.6 1018.5 0.0
02/11:00am 22.1 19.3 5.1 33 8.5 ESE 9 15 5 8 1019.0 1018.9 0.0
02/10:30am 21.5 17.8 4.6 33 8.3 E 13 17 7 9 1019.1 1019.0 0.0
02/10:00am 20.9 16.9 4.9 35 7.9 E 15 17 8 9 1019.2 1019.1 0.0
02/09:30am 18.9 16.1 5.0 40 6.7 E 9 13 5 7 1019.5 1019.3 0.0
02/09:00am 18.0 16.9 5.2 43 6.2 CALM 0 0 0 0 1019.9 1019.7 0.0

Other Formats:

Comma delimited format used in spreadsheet applications
http://www.bom.gov.au/fwo/IDS60801/IDS60801.94476.axf

JavaScript Object Notation format (JSON) in row-major order
http://www.bom.gov.au/fwo/IDS60801/IDS60801.94476.json